メインページ
METAR-TAF:

METAR-TAF

空港 :

トロンハイム, ノルウェー

緯度: 63-28N, 経度: 010-56E, 海抜: 1m

現時点の気象観測

当レポートは26分前の21:20(UTC)に作成
東/南東の風 5kt、から南/南東の間で変化する
気温 3°C
湿度 93%
気圧 1014 hPa
視程10km以上
高度2500ftの雲は散在している
高度3000ftの千切れ雲あり

METAR: ENVA 202120Z 12005KT 080V150 9999 SCT025 BKN030 03/02 Q1014 RMK WIND 670FT 20012KT

時間: 22:46 (21:46 UTC)

予報

予報は20日の 18時(UTC)から 21日の 18時(UTC)まで有効
西/南西の風 8kt
視程10km以上
高度1500ftの雲はほとんどない, 塔状積雲.
高度4000ftの雲は散在している
弱いにわか雨
20日の 18時(UTC)から 20日の 20時(UTC)まで一時的に
西の風 22kt、最大32ktの突風を伴う
視程: 4000m
高度1400ftの千切れ雲あり, 積乱雲.
にわか雨, 雪
20日の 20時(UTC)から 20日の 22時(UTC)まで徐々に
東/南東の風 10kt
確率 40%
21日の 01時(UTC)から 21日の 04時(UTC)まで
南/南東の風 15kt、最大25ktの突風を伴う
21日の 04時(UTC)から 21日の 07時(UTC)まで徐々に
西の風 20kt
21日の 07時(UTC)から 21日の 15時(UTC)まで一時的に
西の風 28kt、最大40ktの突風を伴う
高度1400ftの千切れ雲あり, 塔状積雲.
にわか雨
21日の 15時(UTC)から 21日の 18時(UTC)まで徐々に
変向風 5kt

TAF: ENVA 2018/2118 24008KT 9999 -SHRA FEW015TCU SCT040 TEMPO 2018/2020 26022G32KT 4000 SHRASN BKN014CB BECMG 2020/2022 12010KT PROB40 2101/2104 16015G25KT BECMG 2104/2107 26020KT TEMPO 2107/2115 28028G40KT SHRA BKN014TCU BECMG 2115/2118 VRB05KT

4,000以上の空港の気象観測と天気予報(METAR報とTAF報)

利用可能な観測所は地図上に黄色い丸と赤い丸で示す。

丸の上にカーソルを重ねると観測所名を参照できる。

次にクリックすると気象観測と天気予報を参照できる。

マップの切り替え:黒色「×」印の緑ボタンをクリックして拡大、「-」印の緑ボタンをクリックして縮小、緑色の三角印をクリックして隣りの地図に切り替え


METAR-TAF: